HALF-HOURLY OBSERVATIONS INDEX

022

Yorke Peninsula and Kangaroo Island

CAPE BORDA

Site: 022823
Alt: 158.0m
95km W of KINGSCOTE (KANGAROO ISLAND)


  Time     Wind        Temp  DP   Baro     Rain since   Rain past  Vis(m), Cloud(base in m), Weather
  local        km/h                         9am  last   hr   10m    
Sun 09:30   SW 20/ 28  12.8 11.9  1010.0    0.2   0.2   0.2   0.0   ----- 
Sun 10:00  SSW 22/ 32  12.8 11.4  1010.1    0.2   0.0   0.2   0.0   ----- 
Sun 10:30  SSW 20/ 30  13.8 11.3  1010.0    0.4   0.2   0.2   0.0   ----- 
Sun 11:00   SW 22/ 30  14.4 11.7  1010.0    0.4   0.0   0.2   0.0   ----- 
Sun 11:30   SW 26/ 32  15.2 10.0  1010.2    0.4   0.0   0.0   0.0   ----- 
Sun 12:00   SW 26/ 33  15.3  9.2  1010.2    0.4   0.0   0.0   0.0   ----- 
Sun 12:30   SW 26/ 39  14.2  9.4  1010.3    0.4   0.0   0.0   0.0   ----- 
Sun 13:00   SW 30/ 43  13.8 10.8  1010.4    0.4   0.0   0.0   0.0   ----- 
Sun 13:30  SSW 24/ 33  15.2 10.2  1010.3    0.4   0.0   0.0   0.0   ----- 
Sun 14:00  SSW 30/ 39  15.4  9.1  1010.3    0.4   0.0   0.0   0.0   ----- 
Sun 14:30   SW 30/ 39  15.2  7.7  1010.3    0.4   0.0   0.0   0.0   ----- 
Sun 15:00   SW 28/ 41  15.5  7.3  1010.4    0.4   0.0   0.0   0.0   ----- 

CAPE WILLOUGHBY

Site: 022803
Alt: 55.0m
49km ESE of KINGSCOTE (KANGAROO ISLAND)


  Time     Wind        Temp  DP   Baro     Rain since   Rain past  Vis(m), Cloud(base in m), Weather
  local        km/h                         9am  last   hr   10m    
Sun 09:30  WSW 28/ 37  17.0 10.8  1009.1    0.0   0.0   0.0   0.0   ----- 
Sun 10:00   SW 26/ 37  17.0  9.9  1009.1    0.0   0.0   0.0   0.0   ----- 
Sun 10:30   SW 33/ 46  13.4 11.1  1009.6    0.6   0.6   0.6   0.4   ----- 
Sun 11:00   SW 26/ 37  15.5 13.0  1009.6    0.6   0.0   0.6   0.0   ----- 
Sun 11:30   SW 26/ 35  15.9 10.7  1009.4    0.6   0.0   0.0   0.0   ----- 
Sun 12:00   SW 22/ 32  15.7 10.5  1009.5    0.6   0.0   0.0   0.0   ----- 
Sun 12:30   SW 24/ 32  16.2 10.9  1009.5    0.6   0.0   0.0   0.0   ----- 
Sun 13:00   SW 22/ 28  15.8 11.0  1009.6    0.6   0.0   0.0   0.0   ----- 
Sun 13:30  SSW 30/ 39  14.8 10.4  1009.7    0.6   0.0   0.0   0.0   ----- 
Sun 14:00  SSW 22/ 32  15.5 10.3  1009.7    0.6   0.0   0.0   0.0   ----- 
Sun 14:30   SW 28/ 33  15.2  9.8  1009.6    0.6   0.0   0.0   0.0   ----- 
Sun 15:00  SSW 28/ 33  15.0  9.6  1009.7    0.6   0.0   0.0   0.0   ----- 

EDITHBURGH

Site: 022046
Alt: 6.0m
61km N of KINGSCOTE (KANGAROO ISLAND)


  Time     Wind        Temp  DP   Baro     Rain since   Rain past  Vis(m), Cloud(base in m), Weather
  local        km/h                         9am  last   hr   10m    
Sun 09:30  WSW 20/ 30  18.1 10.0  1009.7    0.0   0.0   0.0   0.0   ----- 
Sun 10:00  WSW 24/ 37  17.2  8.9  1009.8    0.0   0.0   0.0   0.0   ----- 
Sun 10:30  WSW 20/ 32  18.6  8.3  1009.8    0.0   0.0   0.0   0.0   ----- 
Sun 11:00   SW 24/ 35  19.1  9.0  1009.7    0.0   0.0   0.0   0.0   ----- 
Sun 11:30   SW 24/ 35  20.0  9.3  1009.6    0.0   0.0   0.0   0.0   ----- 
Sun 12:00  SSW 26/ 35  19.4 12.4  1009.7    0.0   0.0   0.0   0.0   ----- 
Sun 12:30   SW 28/ 41  19.6 11.6  1009.5    0.0   0.0   0.0   0.0   ----- 
Sun 13:00   SW 28/ 43  20.4 11.3  1009.6    0.0   0.0   0.0   0.0   ----- 
Sun 13:30  SSW 28/ 37  18.7 10.5  1009.6    0.0   0.0   0.0   0.0   ----- 
Sun 14:00   SW 26/ 39  19.1 10.1  1009.6    0.0   0.0   0.0   0.0   ----- 
Sun 14:30   SW 30/ 41  17.4 10.5  1009.7    0.0   0.0   0.0   0.0   ----- 
Sun 15:00   SW 24/ 33  19.5  9.4  1009.7    0.0   0.0   0.0   0.0   ----- 

KADINA AWS

Site: 022050
Alt: 41.1m
45km N of MAITLAND (YORKE PENINSULA)


  Time     Wind        Temp  DP   Baro     Rain since   Rain past  Vis(m), Cloud(base in m), Weather
  local        km/h                         9am  last   hr   10m    
Sun 09:30   SW 24/ 32  17.8  9.9  1010.6    0.0   0.0   0.0   0.0   ----- 
Sun 10:00   SW 19/ 28  17.8  8.4  1010.5    0.0   0.0   0.0   0.0   ----- 
Sun 10:30  WSW 24/ 35  18.7  8.7  1010.5    0.0   0.0   0.0   0.0   ----- 
Sun 11:00  WSW 24/ 37  18.6  7.7  1010.5    0.0   0.0   0.0   0.0   ----- 
Sun 11:30  WSW 24/ 35  18.7  9.2  1010.6    0.0   0.0   0.0   0.0   ----- 
Sun 12:00  WSW 24/ 33  19.0  9.2  1010.6    0.0   0.0   0.0   0.0   ----- 
Sun 12:30  WSW 26/ 37  19.4  9.9  1010.4    0.0   0.0   0.0   0.0   ----- 
Sun 13:00  WSW 26/ 39  20.2  8.5  1010.5    0.0   0.0   0.0   0.0   ----- 
Sun 13:30  WSW 22/ 35  19.9  8.6  1010.6    0.0   0.0   0.0   0.0   ----- 
Sun 14:00   SW 22/ 32  21.0  8.9  1010.2    0.0   0.0   0.0   0.0   ----- 
Sun 14:30  WSW 28/ 35  20.4  9.0  1010.2    0.0   0.0   0.0   0.0   ----- 
Sun 15:00  WSW 26/ 39  19.7  9.9  1010.2    0.0   0.0   0.0   0.0   ----- 

KINGSCOTE AERO

Site: 022841
Alt: 6.2m
12km WSW of KINGSCOTE (KANGAROO ISLAND)


  Time     Wind        Temp  DP   Baro     Rain since   Rain past  Vis(m), Cloud(base in m), Weather
  local        km/h                         9am  last   hr   10m    
Sun 09:30  WSW 24/ 37  17.3 10.0  1009.1    0.0   0.0   0.0   0.0   10000|SC 990 BR1200 
Sun 10:00   SW 33/ 43  16.3 11.7  1009.5    0.0   0.0   0.0   0.0   10000|SC 540 SC 930 BR1200 
Sun 10:30   SW 32/ 45  15.7 11.1  1009.8    0.0   0.0   0.0   0.0   10000|SC 420 SC 780 BR 960 
Sun 11:00  WSW 19/ 26  17.1 12.6  1009.6    0.0   0.0   0.0   0.0   10000|SC 600 SC 780 BR 990 
Sun 11:30   SW 24/ 35  17.5 11.3  1009.4    0.0   0.0   0.0   0.0   10000|SC 720 BR 840 OC 960 
Sun 12:00  WSW 28/ 39  18.2 11.0  1009.3    0.0   0.0   0.0   0.0   10000|BR 900 OC1230 OC1590 
Sun 12:30   SW 26/ 37  17.2 10.3  1009.4    0.0   0.0   0.0   0.0   10000|BR1020 OC1380 
Sun 13:00  SSW 28/ 32  16.5 10.8  1009.6    0.0   0.0   0.0   0.0   10000|SC 870 OC1110 
Sun 13:30  WSW 20/ 28  16.9  9.8  1009.6    0.0   0.0   0.0   0.0   10000|OC 960 
Sun 14:00   SW 28/ 37  17.6 10.0  1009.4    0.0   0.0   0.0   0.0   10000|BR1140 OC1260 
Sun 14:30  SSW 28/ 39  16.7 10.3  1009.5    0.0   0.0   0.0   0.0   10000|SC 990 OC1200 OC1380 
Sun 15:00   SW 26/ 37  17.0 10.1  1009.7    0.0   0.0   0.0   0.0   10000|SC 900 BR1080 OC1320 

MINLATON AERO

Site: 022031
Alt: 32.0m
44km SSW of MAITLAND (YORKE PENINSULA)


  Time     Wind        Temp  DP   Baro     Rain since   Rain past  Vis(m), Cloud(base in m), Weather
  local        km/h                         9am  last   hr   10m    
Sun 09:30  WSW 22/ 28  16.7  9.6  1010.2    0.0   0.0   0.0   0.0   ----- 
Sun 10:00    W 28/ 39  16.9  9.1  1010.3    0.0   0.0   0.0   0.0   ----- 
Sun 10:30    W 30/ 35  17.8  9.2  1010.1    0.0   0.0   0.0   0.0   ----- 
Sun 11:00    W 32/ 41  19.8  9.1  1010.1    0.0   0.0   0.0   0.0   ----- 
Sun 11:30    W 33/ 41  18.3  8.8  1010.1    0.0   0.0   0.0   0.0   ----- 
Sun 12:00    W 30/ 45  19.7 10.4  1010.1    0.0   0.0   0.0   0.0   ----- 
Sun 12:30    W 35/ 43  18.5 10.1  1010.0    0.0   0.0   0.0   0.0   ----- 
Sun 13:00    W 30/ 45  20.5 10.9  1010.0    0.0   0.0   0.0   0.0   ----- 
Sun 13:30    W 32/ 41  20.4 10.8  1009.9    0.0   0.0   0.0   0.0   ----- 
Sun 14:00    W 32/ 39  19.2 11.3  1010.0    0.0   0.0   0.0   0.0   ----- 
Sun 14:30   SW 32/ 41  18.4 11.7  1010.2    0.0   0.0   0.0   0.0   ----- 
Sun 15:00   SW 32/ 43  19.1 11.9  1010.2    0.0   0.0   0.0   0.0   ----- 

MOONTA (WARBURTO POINT)

Site: 022053
Alt: 1.0m
43km NNW of MAITLAND (YORKE PENINSULA)


  Time     Wind        Temp  DP   Baro     Rain since   Rain past  Vis(m), Cloud(base in m), Weather
  local        km/h                         9am  last   hr   10m    
Sun 09:30   SW 22/ 30 --------  ------   ----  ----  ----  ----   ----- 
Sun 10:00   SW 24/ 30 --------  ------   ----  ----  ----  ----   ----- 
Sun 10:30  WSW 22/ 30 --------  ------   ----  ----  ----  ----   ----- 
Sun 11:00  WSW 22/ 30 --------  ------   ----  ----  ----  ----   ----- 
Sun 11:30   SW 24/ 32 --------  ------   ----  ----  ----  ----   ----- 
Sun 12:00  WSW 24/ 32 --------  ------   ----  ----  ----  ----   ----- 
Sun 12:30   SW 24/ 33 --------  ------   ----  ----  ----  ----   ----- 
Sun 13:00   SW 26/ 33 --------  ------   ----  ----  ----  ----   ----- 
Sun 13:30   SW 20/ 26 --------  ------   ----  ----  ----  ----   ----- 
Sun 14:00   SW 17/ 20 --------  ------   ----  ----  ----  ----   ----- 
Sun 14:30   SW 19/ 24 --------  ------   ----  ----  ----  ----   ----- 
Sun 15:00   SW 28/ 35 --------  ------   ----   0.0   0.0  ----   ----- 

PARNDANA CFS AWS

Site: 022843
Alt: 165.0m
38km WSW of KINGSCOTE (KANGAROO ISLAND)


  Time     Wind        Temp  DP   Baro     Rain since   Rain past  Vis(m), Cloud(base in m), Weather
  local        km/h                         9am  last   hr   10m    
Sun 09:30   SW 24/ 33  13.1 11.3  ------    0.0   0.0   0.0   0.0   ----- 
Sun 10:00  WSW 19/ 35  12.9 11.5  ------    0.0   0.0   0.0   0.0   ----- 
Sun 10:30   SW 20/ 30  13.4 11.3  ------    0.2   0.2   0.2   0.0   ----- 
Sun 11:00   SW 26/ 39  14.4 11.2  ------    0.2   0.0   0.2   0.0   ----- 
Sun 11:30   SW 26/ 35  15.3 10.5  ------    0.2   0.0   0.0   0.0   ----- 
Sun 12:00   SW 26/ 32  14.9 10.7  ------    0.2   0.0   0.0   0.0   ----- 
Sun 12:30   SW 26/ 37  16.2 10.7  ------    0.2   0.0   0.0   0.0   ----- 
Sun 13:00   SW 19/ 33  15.4  9.3  ------    0.2   0.0   0.0   0.0   ----- 
Sun 13:30   SW 26/ 39  15.7  8.9  ------    0.2   0.0   0.0   0.0   ----- 
Sun 14:00   SW 24/ 33  16.0 10.5  ------    0.2   0.0   0.0   0.0   ----- 
Sun 14:30   SW 20/ 32  15.0  9.8  ------    0.2   0.0   0.0   0.0   ----- 
Sun 15:00   SW 24/ 33  15.1  9.5  ------    0.2   0.0   0.0   0.0   ----- 

STENHOUSE BAY

Site: 022049
Alt: 42.0m
76km WNW of KINGSCOTE (KANGAROO ISLAND)


  Time     Wind        Temp  DP   Baro     Rain since   Rain past  Vis(m), Cloud(base in m), Weather
  local        km/h                         9am  last   hr   10m    
Sun 09:30  WSW 22/ 32  17.7  9.8  1009.9    0.0   0.0   0.0   0.0   ----- 
Sun 10:00    W 26/ 37  17.0 10.1  1010.0    0.0   0.0   0.0   0.0   ----- 
Sun 10:30   SW 26/ 35  15.1 12.4  1010.1    0.0   0.0   0.0   0.0   ----- 
Sun 11:00   SW 26/ 35  15.3 12.1  1010.2    0.0   0.0   0.0   0.0   ----- 
Sun 11:30   SW 24/ 32  16.5 11.0  1010.3    0.0   0.0   0.0   0.0   ----- 
Sun 12:00  SSW 17/ 24  16.9 11.2  1010.2    0.0   0.0   0.0   0.0   ----- 
Sun 12:30   SW 20/ 28  16.6 10.2  1010.2    0.0   0.0   0.0   0.0   ----- 
Sun 13:00   SW 19/ 26  17.0 10.6  1010.3    0.0   0.0   0.0   0.0   ----- 
Sun 13:30   SW 20/ 30  17.2 10.1  1010.3    0.0   0.0   0.0   0.0   ----- 
Sun 14:00   SW 22/ 28  18.0  9.9  1010.2    0.0   0.0   0.0   0.0   ----- 
Sun 14:30   SW 28/ 37  17.7  9.3  1010.1    0.0   0.0   0.0   0.0   ----- 
Sun 15:00   SW 20/ 32  17.3  9.5  1010.2    0.0   0.0   0.0   0.0   -----